Time;durP1;ratioP1;P1;durP2;ratioP2;P2;SDS_P1;SDS_P2;PMS_P1;PMS_P2;Temp;Humidity;BMP_temperature;BMP_pressure;BME280_temperature;BME280_humidity;BME280_pressure;Samples;Min_cycle;Max_cycle;Signal;HPM_P1;HPM_P2
2022/08/06 00:01:42;;;;;;;189.40;146.93;;;;;;;;;;5044750;28;20230;-71
2022/08/06 00:04:08;;;;;;;198.18;150.60;;;;;;;;;;5040494;28;20195;-71
2022/08/06 00:06:34;;;;;;;211.27;155.50;;;;;;;;;;5041222;28;20897;-70
2022/08/06 00:09:00;;;;;;;264.10;183.65;;;;;;;;;;5039966;28;20227;-70
2022/08/06 00:11:26;;;;;;;200.02;148.05;;;;;;;;;;5042273;28;20215;-71
2022/08/06 00:13:52;;;;;;;211.75;156.95;;;;;;;;;;5043983;28;20230;-71
2022/08/06 00:16:18;;;;;;;217.10;155.10;;;;;;;;;;5041560;28;20195;-70
2022/08/06 00:18:44;;;;;;;197.00;152.45;;;;;;;;;;5044631;28;20179;-70
2022/08/06 00:21:10;;;;;;;224.32;158.82;;;;;;;;;;5040196;28;20223;-71
2022/08/06 00:23:36;;;;;;;193.13;142.70;;;;;;;;;;5021288;28;20303;-71
2022/08/06 00:26:02;;;;;;;197.07;148.68;;;;;;;;;;5047358;28;20211;-71
2022/08/06 00:28:28;;;;;;;194.02;144.93;;;;;;;;;;5041550;28;20223;-71
2022/08/06 00:30:53;;;;;;;210.98;150.45;;;;;;;;;;5041094;28;20517;-71
2022/08/06 00:33:19;;;;;;;180.90;139.65;;;;;;;;;;5042546;28;20212;-70
2022/08/06 00:35:45;;;;;;;265.98;173.43;;;;;;;;;;5038919;28;20215;-70
2022/08/06 00:38:12;;;;;;;185.30;140.88;;;;;;;;;;5041663;28;20223;-71
2022/08/06 00:40:38;;;;;;;167.43;132.23;;;;;;;;;;5041592;28;20238;-71
2022/08/06 00:43:04;;;;;;;183.77;140.52;;;;;;;;;;5044728;28;20676;-71
2022/08/06 00:45:31;;;;;;;252.27;162.88;;;;;;;;;;5044036;28;20715;-71
2022/08/06 00:47:57;;;;;;;205.07;149.38;;;;;;;;;;5041790;28;20230;-71
2022/08/06 00:50:23;;;;;;;208.30;148.82;;;;;;;;;;5025202;28;20223;-71
2022/08/06 00:52:49;;;;;;;234.88;163.05;;;;;;;;;;5043077;28;20238;-71
2022/08/06 00:55:15;;;;;;;169.82;135.20;;;;;;;;;;5043481;28;20194;-70
2022/08/06 00:57:41;;;;;;;194.82;159.43;;;;;;;;;;5045217;28;20612;-70
2022/08/06 01:00:07;;;;;;;209.35;161.95;;;;;;;;;;5044571;28;20232;-70
2022/08/06 01:02:33;;;;;;;184.55;149.45;;;;;;;;;;5041513;28;20223;-70
2022/08/06 01:04:59;;;;;;;213.82;168.57;;;;;;;;;;5042290;28;20218;-71
2022/08/06 01:07:25;;;;;;;250.23;174.75;;;;;;;;;;5037546;28;20219;-70
2022/08/06 01:09:51;;;;;;;249.63;175.45;;;;;;;;;;5040751;28;20223;-70
2022/08/06 01:12:17;;;;;;;214.02;164.20;;;;;;;;;;5046783;28;20269;-70
2022/08/06 01:14:43;;;;;;;285.75;185.55;;;;;;;;;;5042374;28;20577;-70
2022/08/06 01:17:17;;;;;;;290.48;190.93;;;;;;;;;;5027473;28;20223;-71
2022/08/06 01:19:47;;;;;;;280.38;183.27;;;;;;;;;;5048979;28;20239;-71
2022/08/06 01:22:25;;;;;;;294.40;188.07;;;;;;;;;;5042486;28;20188;-71
2022/08/06 01:24:56;;;;;;;308.05;195.52;;;;;;;;;;5045244;28;20191;-70
2022/08/06 01:27:29;;;;;;;294.65;187.25;;;;;;;;;;5028606;28;20219;-71
2022/08/06 01:29:57;;;;;;;330.67;208.38;;;;;;;;;;5042486;28;20257;-71
2022/08/06 01:32:29;;;;;;;310.20;197.38;;;;;;;;;;5042435;28;20565;-71
2022/08/06 01:34:58;;;;;;;364.45;222.25;;;;;;;;;;5045161;28;20231;-70
2022/08/06 01:37:29;;;;;;;310.38;193.93;;;;;;;;;;5040603;28;20234;-72
2022/08/06 01:40:00;;;;;;;309.08;198.57;;;;;;;;;;5042149;28;20211;-71
2022/08/06 01:42:28;;;;;;;293.63;185.93;;;;;;;;;;5042343;28;20545;-71
2022/08/06 01:44:56;;;;;;;311.50;200.80;;;;;;;;;;5029618;28;20223;-70
2022/08/06 01:47:23;;;;;;;310.35;194.35;;;;;;;;;;5046751;28;20738;-70
2022/08/06 01:49:51;;;;;;;302.38;195.38;;;;;;;;;;5045937;28;20226;-71
2022/08/06 01:52:20;;;;;;;281.17;182.40;;;;;;;;;;5041358;28;20525;-71
2022/08/06 01:54:48;;;;;;;264.20;177.27;;;;;;;;;;5046019;28;20210;-70
2022/08/06 01:57:15;;;;;;;233.18;165.68;;;;;;;;;;5048953;28;20230;-71
2022/08/06 01:59:44;;;;;;;238.90;166.75;;;;;;;;;;5042697;28;20306;-70
2022/08/06 02:02:13;;;;;;;202.00;151.15;;;;;;;;;;5042723;28;20223;-71
2022/08/06 02:04:40;;;;;;;191.80;147.13;;;;;;;;;;5048912;28;20219;-70
2022/08/06 02:07:08;;;;;;;199.07;149.85;;;;;;;;;;5046777;28;20198;-71
2022/08/06 02:09:35;;;;;;;205.40;151.18;;;;;;;;;;5043503;28;20199;-70
2022/08/06 02:12:03;;;;;;;205.85;153.45;;;;;;;;;;5024335;28;20219;-71
2022/08/06 02:14:31;;;;;;;215.20;155.38;;;;;;;;;;5048953;28;20214;-70
2022/08/06 02:16:57;;;;;;;223.23;160.85;;;;;;;;;;5042209;28;20517;-70
2022/08/06 02:19:24;;;;;;;257.15;175.95;;;;;;;;;;5043078;28;20254;-71
2022/08/06 02:21:51;;;;;;;232.15;168.60;;;;;;;;;;5047453;28;20191;-70
2022/08/06 02:24:18;;;;;;;225.32;160.55;;;;;;;;;;5041516;28;20288;-70
2022/08/06 02:26:45;;;;;;;262.92;174.07;;;;;;;;;;5042637;28;20219;-71
2022/08/06 02:29:15;;;;;;;218.23;157.55;;;;;;;;;;5047451;28;20215;-71
2022/08/06 02:31:41;;;;;;;185.20;142.63;;;;;;;;;;5039054;28;20239;-70
2022/08/06 02:34:07;;;;;;;213.02;153.95;;;;;;;;;;5023185;28;20521;-71
2022/08/06 02:36:36;;;;;;;229.48;157.30;;;;;;;;;;5044170;28;20191;-70
2022/08/06 02:39:04;;;;;;;219.35;153.80;;;;;;;;;;5045439;28;20220;-70
2022/08/06 02:41:31;;;;;;;192.00;141.38;;;;;;;;;;5047150;28;20246;-70
2022/08/06 02:44:01;;;;;;;207.90;151.75;;;;;;;;;;5041051;28;20235;-70
2022/08/06 02:46:29;;;;;;;197.75;144.57;;;;;;;;;;5041972;28;20223;-70
2022/08/06 02:49:00;;;;;;;214.02;151.95;;;;;;;;;;5044588;28;20188;-71
2022/08/06 02:51:28;;;;;;;216.95;151.50;;;;;;;;;;5044839;28;20230;-70
2022/08/06 02:53:58;;;;;;;227.88;156.35;;;;;;;;;;5046038;28;20963;-71
2022/08/06 02:56:25;;;;;;;155.45;126.70;;;;;;;;;;5046852;28;20215;-71
2022/08/06 02:58:52;;;;;;;193.25;142.07;;;;;;;;;;5046077;28;20211;-70
2022/08/06 03:01:20;;;;;;;142.68;120.95;;;;;;;;;;5024110;28;20210;-71
2022/08/06 03:03:48;;;;;;;152.60;122.75;;;;;;;;;;5045029;28;20191;-71
2022/08/06 03:06:16;;;;;;;151.07;124.07;;;;;;;;;;5041462;28;20227;-70
2022/08/06 03:08:42;;;;;;;147.35;119.05;;;;;;;;;;5046004;28;20215;-71
2022/08/06 03:11:09;;;;;;;121.25;108.25;;;;;;;;;;5042164;28;20608;-71
2022/08/06 03:13:35;;;;;;;130.32;113.57;;;;;;;;;;5042223;28;20846;-71
2022/08/06 03:16:01;;;;;;;155.23;122.65;;;;;;;;;;5045486;28;20630;-70
2022/08/06 03:18:28;;;;;;;158.50;117.80;;;;;;;;;;5025219;28;20270;-71
2022/08/06 03:20:55;;;;;;;220.18;144.57;;;;;;;;;;5039100;28;20254;-71
2022/08/06 03:23:22;;;;;;;118.88;104.28;;;;;;;;;;5040240;28;20636;-71
2022/08/06 03:25:48;;;;;;;205.43;134.07;;;;;;;;;;5046105;28;20234;-71
2022/08/06 03:28:15;;;;;;;122.68;109.05;;;;;;;;;;5039916;28;20199;-71
2022/08/06 03:30:41;;;;;;;120.53;107.43;;;;;;;;;;5044261;28;20750;-71
2022/08/06 03:33:12;;;;;;;117.50;104.88;;;;;;;;;;5046190;28;20285;-72
2022/08/06 03:35:38;;;;;;;234.52;145.85;;;;;;;;;;5040305;28;20563;-71
2022/08/06 03:38:06;;;;;;;125.00;105.88;;;;;;;;;;5042982;28;20240;-71
2022/08/06 03:40:32;;;;;;;113.47;100.57;;;;;;;;;;5044956;28;20231;-71
2022/08/06 03:42:59;;;;;;;183.65;129.68;;;;;;;;;;5043515;28;20194;-71
2022/08/06 03:45:26;;;;;;;133.13;105.00;;;;;;;;;;5044054;28;20227;-70
2022/08/06 03:47:54;;;;;;;195.95;134.05;;;;;;;;;;5045757;28;20216;-70
2022/08/06 03:50:21;;;;;;;116.30;102.90;;;;;;;;;;5047513;28;20598;-72
2022/08/06 03:52:50;;;;;;;143.13;112.90;;;;;;;;;;5045235;28;20224;-71
2022/08/06 03:55:19;;;;;;;107.47;96.13;;;;;;;;;;5044082;28;20206;-71
2022/08/06 03:57:47;;;;;;;147.88;110.45;;;;;;;;;;5046844;28;20191;-71
2022/08/06 04:00:15;;;;;;;149.93;112.95;;;;;;;;;;5044692;28;20330;-71
2022/08/06 04:02:44;;;;;;;144.80;111.57;;;;;;;;;;5042997;28;20230;-71
2022/08/06 04:05:11;;;;;;;142.52;105.57;;;;;;;;;;5045993;28;20246;-70
2022/08/06 04:07:38;;;;;;;105.82;94.78;;;;;;;;;;5041560;28;20630;-71
2022/08/06 04:10:04;;;;;;;106.38;95.55;;;;;;;;;;5046461;28;20603;-72
2022/08/06 04:12:30;;;;;;;123.60;98.13;;;;;;;;;;5047199;28;20176;-72
2022/08/06 04:14:57;;;;;;;116.30;94.68;;;;;;;;;;5036308;28;20215;-71
2022/08/06 04:17:23;;;;;;;114.50;95.88;;;;;;;;;;5047795;28;20219;-71
2022/08/06 04:19:49;;;;;;;149.85;105.60;;;;;;;;;;5047277;28;20533;-71
2022/08/06 04:22:15;;;;;;;109.05;88.30;;;;;;;;;;5044237;28;20187;-71
2022/08/06 04:24:41;;;;;;;100.38;89.45;;;;;;;;;;5048045;28;20252;-71
2022/08/06 04:27:07;;;;;;;94.40;84.95;;;;;;;;;;5047812;28;20233;-71
2022/08/06 04:29:35;;;;;;;101.50;89.43;;;;;;;;;;5045287;28;20565;-72
2022/08/06 04:32:02;;;;;;;125.30;102.90;;;;;;;;;;5045982;28;20314;-71
2022/08/06 04:34:29;;;;;;;117.35;92.90;;;;;;;;;;5029352;28;20310;-72
2022/08/06 04:36:55;;;;;;;112.43;93.35;;;;;;;;;;5045249;28;20534;-72
2022/08/06 04:39:22;;;;;;;100.40;89.68;;;;;;;;;;5046413;28;20571;-72
2022/08/06 04:41:49;;;;;;;113.45;98.25;;;;;;;;;;5044032;28;20214;-71
2022/08/06 04:44:15;;;;;;;96.72;85.82;;;;;;;;;;5049092;28;20223;-71
2022/08/06 04:46:43;;;;;;;104.78;93.70;;;;;;;;;;5045583;28;20223;-71
2022/08/06 04:49:09;;;;;;;101.00;90.40;;;;;;;;;;5029409;28;20191;-72
2022/08/06 04:51:35;;;;;;;91.10;81.47;;;;;;;;;;5046568;28;20198;-72
2022/08/06 04:54:03;;;;;;;118.85;95.13;;;;;;;;;;5050228;28;20267;-71
2022/08/06 04:56:29;;;;;;;85.75;78.22;;;;;;;;;;5051814;28;20580;-72
2022/08/06 04:58:55;;;;;;;126.75;97.78;;;;;;;;;;5047772;28;20216;-71
2022/08/06 05:01:21;;;;;;;103.43;88.70;;;;;;;;;;5051657;28;20215;-72
2022/08/06 05:03:47;;;;;;;140.75;97.55;;;;;;;;;;5050264;28;20698;-71
2022/08/06 05:06:19;;;;;;;94.63;79.90;;;;;;;;;;5031853;28;20277;-71
2022/08/06 05:08:48;;;;;;;80.88;69.15;;;;;;;;;;5048364;28;20250;-71
2022/08/06 05:11:19;;;;;;;109.40;84.53;;;;;;;;;;5049558;28;20218;-71
2022/08/06 05:13:47;;;;;;;101.07;79.15;;;;;;;;;;5047815;28;20564;-71
2022/08/06 05:16:13;;;;;;;115.32;85.70;;;;;;;;;;5048406;28;20184;-72
2022/08/06 05:18:43;;;;;;;86.03;77.30;;;;;;;;;;5049829;28;20210;-71
2022/08/06 05:21:11;;;;;;;103.60;79.38;;;;;;;;;;5049274;28;20219;-71
2022/08/06 05:23:39;;;;;;;93.70;74.55;;;;;;;;;;5049937;28;20242;-71
2022/08/06 05:26:07;;;;;;;99.30;79.13;;;;;;;;;;5048287;28;20293;-71
2022/08/06 05:28:33;;;;;;;114.20;87.47;;;;;;;;;;5045892;28;20238;-70
2022/08/06 05:30:59;;;;;;;132.20;94.30;;;;;;;;;;5048639;28;20195;-69
2022/08/06 05:33:30;;;;;;;112.93;88.35;;;;;;;;;;5048929;28;20277;-69
2022/08/06 05:35:57;;;;;;;127.57;99.47;;;;;;;;;;5049026;28;20221;-69
2022/08/06 05:38:23;;;;;;;115.47;97.93;;;;;;;;;;5045251;28;20245;-68
2022/08/06 05:40:49;;;;;;;143.35;111.75;;;;;;;;;;5045903;28;20269;-68
2022/08/06 05:43:15;;;;;;;105.60;95.13;;;;;;;;;;5035943;28;20189;-69
2022/08/06 05:45:42;;;;;;;143.43;107.07;;;;;;;;;;5051027;28;20191;-69
2022/08/06 05:48:08;;;;;;;108.00;96.35;;;;;;;;;;5035373;28;20223;-69
2022/08/06 05:50:38;;;;;;;132.98;105.65;;;;;;;;;;5042511;28;20408;-69
2022/08/06 05:53:10;;;;;;;105.05;93.35;;;;;;;;;;5045991;28;20224;-68
2022/08/06 05:55:40;;;;;;;126.57;99.40;;;;;;;;;;5044713;28;20223;-67
2022/08/06 05:58:20;;;;;;;121.72;97.28;;;;;;;;;;5047548;28;20286;-68
2022/08/06 06:00:47;;;;;;;153.48;106.47;;;;;;;;;;5041293;28;20212;-68
2022/08/06 06:03:15;;;;;;;115.57;98.72;;;;;;;;;;5049343;28;20224;-70
2022/08/06 06:05:42;;;;;;;201.05;128.50;;;;;;;;;;5027374;28;20239;-68
2022/08/06 06:08:08;;;;;;;181.75;117.55;;;;;;;;;;5041682;28;21044;-68
2022/08/06 06:10:35;;;;;;;152.55;104.43;;;;;;;;;;5039168;28;20223;-68
2022/08/06 06:13:02;;;;;;;133.73;104.63;;;;;;;;;;5047014;28;20188;-68
2022/08/06 06:15:28;;;;;;;144.00;100.50;;;;;;;;;;5041743;28;20647;-68
2022/08/06 06:18:16;;;;;;;161.98;112.82;;;;;;;;;;5046911;28;20637;-68
2022/08/06 06:20:57;;;;;;;127.53;97.68;;;;;;;;;;5044405;28;20298;-68
2022/08/06 06:23:26;;;;;;;132.27;96.82;;;;;;;;;;5043303;28;20216;-68
2022/08/06 06:26:02;;;;;;;134.20;99.78;;;;;;;;;;5043277;28;20242;-68
2022/08/06 06:28:35;;;;;;;212.82;125.63;;;;;;;;;;5035228;28;20215;-68
2022/08/06 06:31:13;;;;;;;136.55;100.72;;;;;;;;;;5044629;28;20702;-68
2022/08/06 06:33:42;;;;;;;102.50;91.70;;;;;;;;;;5048417;28;20567;-67
2022/08/06 06:36:17;;;;;;;133.82;97.22;;;;;;;;;;5044412;28;20219;-67
2022/08/06 06:38:50;;;;;;;122.30;99.03;;;;;;;;;;5045953;28;20293;-68
2022/08/06 06:41:22;;;;;;;104.57;94.13;;;;;;;;;;5047529;28;20395;-67
2022/08/06 06:43:57;;;;;;;130.50;109.05;;;;;;;;;;5046625;28;20220;-67
2022/08/06 06:46:31;;;;;;;106.20;93.80;;;;;;;;;;5045625;28;20222;-68
2022/08/06 06:49:00;;;;;;;152.38;111.65;;;;;;;;;;5047335;28;20180;-68
2022/08/06 06:51:29;;;;;;;114.38;99.80;;;;;;;;;;5044476;28;20220;-67
2022/08/06 06:53:55;;;;;;;149.85;114.03;;;;;;;;;;5049589;28;20728;-67
2022/08/06 06:56:24;;;;;;;125.70;101.53;;;;;;;;;;5044654;28;20223;-67
2022/08/06 06:58:53;;;;;;;146.50;115.43;;;;;;;;;;5047711;28;20223;-67
2022/08/06 07:01:19;;;;;;;117.07;101.90;;;;;;;;;;5048599;28;20219;-68
2022/08/06 07:03:46;;;;;;;121.20;103.15;;;;;;;;;;5044989;28;20191;-68
2022/08/06 07:06:12;;;;;;;139.70;109.07;;;;;;;;;;5045668;28;20575;-68
2022/08/06 07:08:44;;;;;;;99.15;90.20;;;;;;;;;;5045989;28;20216;-67
2022/08/06 07:11:10;;;;;;;134.80;110.93;;;;;;;;;;5047843;28;20722;-67
2022/08/06 07:13:37;;;;;;;116.68;104.32;;;;;;;;;;5049387;28;20227;-71
2022/08/06 07:16:05;;;;;;;155.57;118.43;;;;;;;;;;5039224;28;20743;-70
2022/08/06 07:18:32;;;;;;;173.23;121.10;;;;;;;;;;5048002;28;20175;-66
2022/08/06 07:20:58;;;;;;;171.23;120.88;;;;;;;;;;5042668;28;20227;-67
2022/08/06 07:23:25;;;;;;;137.45;100.80;;;;;;;;;;5040963;28;20241;-71
2022/08/06 07:25:53;;;;;;;155.50;109.38;;;;;;;;;;5028407;28;20494;-67
2022/08/06 07:28:19;;;;;;;165.70;114.93;;;;;;;;;;5024846;28;20187;-70
2022/08/06 07:30:46;;;;;;;153.45;108.85;;;;;;;;;;5041052;28;20762;-68
2022/08/06 07:33:12;;;;;;;168.38;125.00;;;;;;;;;;5041639;28;20219;-67
2022/08/06 07:35:41;;;;;;;229.63;147.82;;;;;;;;;;5039679;28;20258;-68
2022/08/06 07:38:08;;;;;;;126.93;111.82;;;;;;;;;;5039941;28;20211;-68
2022/08/06 07:40:41;;;;;;;143.05;120.28;;;;;;;;;;5048949;28;20230;-68
2022/08/06 07:43:09;;;;;;;126.43;111.97;;;;;;;;;;5043336;28;20199;-67
2022/08/06 07:45:35;;;;;;;183.00;135.77;;;;;;;;;;5044402;28;20187;-68
2022/08/06 07:48:05;;;;;;;129.90;107.25;;;;;;;;;;5046966;28;20659;-68
2022/08/06 07:50:32;;;;;;;114.30;102.15;;;;;;;;;;5048728;28;20692;-69
2022/08/06 07:52:58;;;;;;;174.32;117.50;;;;;;;;;;5040222;28;20273;-68
2022/08/06 07:55:25;;;;;;;159.05;115.38;;;;;;;;;;5044215;28;21315;-67
2022/08/06 07:57:52;;;;;;;194.57;132.40;;;;;;;;;;5041474;28;20183;-68
2022/08/06 08:00:18;;;;;;;146.63;113.18;;;;;;;;;;5039730;28;20231;-69
2022/08/06 08:06:17;;;;;;;132.75;112.72;;;;;;;;;;5038978;28;20684;-69
2022/08/06 08:08:16;;;;;;;139.32;112.07;;;;;;;;;;5043869;28;20419;-68
2022/08/06 08:10:42;;;;;;;115.38;102.90;;;;;;;;;;5042087;28;20253;-70
2022/08/06 08:13:09;;;;;;;146.73;124.35;;;;;;;;;;5039043;28;20525;-70
2022/08/06 08:15:35;;;;;;;187.75;140.95;;;;;;;;;;5043728;28;20195;-69
2022/08/06 08:18:01;;;;;;;187.13;144.02;;;;;;;;;;5039991;28;20216;-69
2022/08/06 08:20:29;;;;;;;134.60;118.78;;;;;;;;;;5036420;28;20273;-68
2022/08/06 08:22:54;;;;;;;188.50;132.60;;;;;;;;;;5017636;28;20223;-68
2022/08/06 08:25:20;;;;;;;135.13;117.32;;;;;;;;;;5041614;28;20235;-68
2022/08/06 08:27:46;;;;;;;172.02;138.65;;;;;;;;;;5043468;28;20414;-68
2022/08/06 08:30:12;;;;;;;183.15;135.75;;;;;;;;;;5030151;28;20965;-69
2022/08/06 08:32:38;;;;;;;246.35;155.45;;;;;;;;;;5036214;28;20302;-69
2022/08/06 08:35:04;;;;;;;127.82;115.28;;;;;;;;;;5043586;28;20219;-68
2022/08/06 08:37:30;;;;;;;184.10;139.32;;;;;;;;;;5039433;28;20283;-68
2022/08/06 08:39:56;;;;;;;180.00;146.75;;;;;;;;;;5038159;28;20210;-68
2022/08/06 08:42:32;;;;;;;134.93;120.78;;;;;;;;;;5041249;28;20237;-69
2022/08/06 08:44:58;;;;;;;210.35;149.20;;;;;;;;;;5043767;28;20222;-68
2022/08/06 08:47:24;;;;;;;169.48;131.77;;;;;;;;;;5043575;28;20215;-68
2022/08/06 08:49:55;;;;;;;262.73;176.05;;;;;;;;;;5038956;28;20211;-69
2022/08/06 08:52:24;;;;;;;144.13;128.15;;;;;;;;;;5041394;28;20226;-68
2022/08/06 08:54:52;;;;;;;190.15;156.05;;;;;;;;;;5038362;28;20176;-67
2022/08/06 08:57:18;;;;;;;179.25;149.93;;;;;;;;;;5038146;28;20215;-70
2022/08/06 08:59:44;;;;;;;188.90;139.52;;;;;;;;;;5039055;28;20363;-70
2022/08/06 09:02:13;;;;;;;137.98;124.00;;;;;;;;;;5048613;28;20719;-71
2022/08/06 09:04:39;;;;;;;188.85;150.80;;;;;;;;;;5044139;28;20306;-70
2022/08/06 09:07:06;;;;;;;196.40;160.52;;;;;;;;;;5019484;28;20242;-70
2022/08/06 09:09:34;;;;;;;168.32;145.50;;;;;;;;;;5045851;28;20218;-70
2022/08/06 09:12:00;;;;;;;213.00;162.55;;;;;;;;;;5041479;28;20314;-70
2022/08/06 09:14:26;;;;;;;167.77;146.77;;;;;;;;;;5027297;28;20360;-69
2022/08/06 09:16:52;;;;;;;172.65;146.40;;;;;;;;;;5041353;28;20219;-70
2022/08/06 09:19:18;;;;;;;148.90;132.80;;;;;;;;;;5042381;28;20202;-70
2022/08/06 09:21:44;;;;;;;209.93;157.85;;;;;;;;;;5040428;28;20485;-70
2022/08/06 09:24:10;;;;;;;146.23;130.50;;;;;;;;;;5040014;28;20238;-70
2022/08/06 09:26:36;;;;;;;149.55;133.40;;;;;;;;;;5024268;28;20215;-70
2022/08/06 09:29:09;;;;;;;195.30;159.00;;;;;;;;;;5045958;28;20215;-70
2022/08/06 09:31:36;;;;;;;184.75;149.27;;;;;;;;;;5040471;28;20223;-71
2022/08/06 09:34:06;;;;;;;213.23;173.50;;;;;;;;;;5046102;28;20199;-70
2022/08/06 09:36:46;;;;;;;195.90;163.95;;;;;;;;;;5033179;28;20195;-71
2022/08/06 09:39:13;;;;;;;192.40;165.10;;;;;;;;;;5042919;28;20716;-71
2022/08/06 09:41:46;;;;;;;164.82;147.88;;;;;;;;;;5046579;28;20218;-71
2022/08/06 09:44:12;;;;;;;199.02;168.18;;;;;;;;;;5048129;28;20222;-71
2022/08/06 09:46:39;;;;;;;179.93;159.93;;;;;;;;;;5046248;28;20215;-71
2022/08/06 09:49:05;;;;;;;188.38;163.57;;;;;;;;;;5030684;28;20188;-71
2022/08/06 09:51:34;;;;;;;185.00;164.63;;;;;;;;;;5049232;28;20188;-71
2022/08/06 09:54:00;;;;;;;235.68;175.98;;;;;;;;;;5021315;28;20223;-71
2022/08/06 09:56:27;;;;;;;178.00;158.77;;;;;;;;;;5043902;28;20243;-70
2022/08/06 09:59:00;;;;;;;214.93;184.93;;;;;;;;;;5045898;28;20552;-71
2022/08/06 10:01:27;;;;;;;227.13;180.13;;;;;;;;;;5043366;28;20602;-71
2022/08/06 10:03:54;;;;;;;207.13;177.35;;;;;;;;;;5047472;28;20255;-71
2022/08/06 10:06:20;;;;;;;203.35;172.60;;;;;;;;;;5049848;28;20218;-71
2022/08/06 10:08:47;;;;;;;185.82;164.07;;;;;;;;;;5045728;28;20263;-71
2022/08/06 10:11:13;;;;;;;195.90;174.68;;;;;;;;;;5050791;28;20231;-71
2022/08/06 10:13:39;;;;;;;191.32;169.52;;;;;;;;;;5045297;28;20246;-71
2022/08/06 10:16:16;;;;;;;191.20;168.80;;;;;;;;;;5049868;28;20605;-71
2022/08/06 10:18:46;;;;;;;226.25;187.10;;;;;;;;;;5046441;28;20202;-71
2022/08/06 10:21:14;;;;;;;178.93;158.52;;;;;;;;;;5043012;28;20215;-71
2022/08/06 10:23:41;;;;;;;183.05;160.65;;;;;;;;;;5051364;28;20219;-71
2022/08/06 10:26:09;;;;;;;196.65;176.18;;;;;;;;;;5046420;28;20303;-71
2022/08/06 10:28:36;;;;;;;192.35;171.35;;;;;;;;;;5027542;28;20700;-71
2022/08/06 10:31:03;;;;;;;203.18;174.07;;;;;;;;;;5047533;28;20199;-71
2022/08/06 10:33:32;;;;;;;199.63;167.32;;;;;;;;;;5046684;28;20195;-71
2022/08/06 10:36:00;;;;;;;203.38;170.52;;;;;;;;;;5042500;28;20228;-70
2022/08/06 10:38:27;;;;;;;194.82;164.32;;;;;;;;;;5045067;28;20223;-71
2022/08/06 10:40:54;;;;;;;223.90;179.60;;;;;;;;;;5044769;28;20254;-70
2022/08/06 10:43:20;;;;;;;196.90;168.48;;;;;;;;;;5050538;28;20187;-71
2022/08/06 10:45:46;;;;;;;228.88;188.95;;;;;;;;;;5044717;28;20473;-70
2022/08/06 10:48:12;;;;;;;211.35;181.40;;;;;;;;;;5046309;28;20211;-71
2022/08/06 10:50:39;;;;;;;182.13;162.35;;;;;;;;;;5043606;28;20303;-70
2022/08/06 10:53:05;;;;;;;191.30;163.15;;;;;;;;;;5047306;28;20234;-70
2022/08/06 10:55:31;;;;;;;227.18;181.05;;;;;;;;;;5048190;28;20451;-71
2022/08/06 10:57:59;;;;;;;221.38;179.80;;;;;;;;;;5047234;28;20200;-71
2022/08/06 11:00:25;;;;;;;180.00;158.80;;;;;;;;;;5053036;28;20222;-70
2022/08/06 11:03:08;;;;;;;213.07;176.25;;;;;;;;;;5024020;28;20243;-70
2022/08/06 11:05:36;;;;;;;214.45;172.82;;;;;;;;;;5049888;28;22059;-70
2022/08/06 11:08:10;;;;;;;192.88;170.13;;;;;;;;;;5045681;28;20220;-71
2022/08/06 11:10:58;;;;;;;178.93;159.65;;;;;;;;;;5047186;28;20296;-70
2022/08/06 11:13:24;;;;;;;187.50;162.38;;;;;;;;;;5048977;28;20215;-70
2022/08/06 11:15:50;;;;;;;263.17;197.52;;;;;;;;;;5023612;28;20459;-70
2022/08/06 11:18:17;;;;;;;188.68;165.18;;;;;;;;;;5045982;28;20235;-70
2022/08/06 11:20:44;;;;;;;180.68;162.05;;;;;;;;;;5048146;28;20386;-70
2022/08/06 11:23:13;;;;;;;199.27;177.38;;;;;;;;;;5045971;28;20494;-70
2022/08/06 11:25:40;;;;;;;274.88;214.48;;;;;;;;;;5043261;28;20281;-71
2022/08/06 11:28:07;;;;;;;214.20;191.35;;;;;;;;;;5046015;28;20187;-70
2022/08/06 11:30:44;;;;;;;240.07;191.60;;;;;;;;;;5037660;28;20204;-70
2022/08/06 11:33:10;;;;;;;228.50;199.98;;;;;;;;;;5041524;28;20231;-70
2022/08/06 11:35:36;;;;;;;277.85;229.35;;;;;;;;;;5035904;28;20227;-62
2022/08/06 11:38:06;;;;;;;270.63;232.20;;;;;;;;;;5039170;28;20534;-62
2022/08/06 11:40:51;;;;;;;231.60;206.38;;;;;;;;;;5042393;28;20223;-64
2022/08/06 11:43:36;;;;;;;260.48;229.50;;;;;;;;;;5042309;28;20245;-64
2022/08/06 11:46:21;;;;;;;356.98;271.45;;;;;;;;;;5034721;28;20187;-63
2022/08/06 11:48:59;;;;;;;256.63;223.48;;;;;;;;;;5041629;28;20179;-61
2022/08/06 11:51:38;;;;;;;251.27;224.55;;;;;;;;;;5046150;28;20559;-62
2022/08/06 11:54:17;;;;;;;233.98;207.07;;;;;;;;;;5041014;28;20832;-63
2022/08/06 11:57:02;;;;;;;218.38;196.30;;;;;;;;;;5043331;28;20223;-62
2022/08/06 11:59:29;;;;;;;228.98;204.07;;;;;;;;;;5027411;28;20216;-62
2022/08/06 12:01:55;;;;;;;262.10;233.90;;;;;;;;;;5043758;28;20239;-63
2022/08/06 12:04:36;;;;;;;252.02;226.23;;;;;;;;;;5047769;28;20329;-62
2022/08/06 12:07:21;;;;;;;262.23;233.38;;;;;;;;;;5046761;28;20184;-62
2022/08/06 12:10:00;;;;;;;255.82;228.10;;;;;;;;;;5046048;28;20203;-63
2022/08/06 12:12:33;;;;;;;267.40;237.95;;;;;;;;;;5044102;28;20211;-63
2022/08/06 12:15:03;;;;;;;279.45;246.68;;;;;;;;;;5042923;28;20628;-63
2022/08/06 12:17:30;;;;;;;378.17;301.73;;;;;;;;;;5044661;28;20230;-62
2022/08/06 12:19:58;;;;;;;321.15;276.63;;;;;;;;;;5031377;28;20227;-62
2022/08/06 12:22:24;;;;;;;275.27;241.40;;;;;;;;;;5047432;28;20680;-63
2022/08/06 12:24:51;;;;;;;320.25;262.35;;;;;;;;;;5039033;28;20195;-62
2022/08/06 12:27:18;;;;;;;269.50;240.27;;;;;;;;;;5040240;28;20219;-71
2022/08/06 12:29:44;;;;;;;293.58;256.23;;;;;;;;;;5041400;28;20232;-71
2022/08/06 12:32:24;;;;;;;272.27;243.63;;;;;;;;;;5042599;28;20227;-70
2022/08/06 12:34:51;;;;;;;343.40;281.20;;;;;;;;;;5034123;28;20751;-71
2022/08/06 12:37:17;;;;;;;267.90;240.48;;;;;;;;;;5034751;28;20179;-70
2022/08/06 12:42:29;;;;;;;273.70;243.77;;;;;;;;;;5046946;28;20610;-71
2022/08/06 12:44:55;;;;;;;280.02;250.27;;;;;;;;;;5044318;28;20617;-71
2022/08/06 12:47:21;;;;;;;292.70;260.20;;;;;;;;;;5035005;28;20216;-71
2022/08/06 12:49:47;;;;;;;274.33;245.75;;;;;;;;;;5029263;28;20218;-71
2022/08/06 12:52:17;;;;;;;247.85;220.95;;;;;;;;;;5047579;28;20207;-71
2022/08/06 12:54:44;;;;;;;266.40;237.43;;;;;;;;;;5043346;28;20172;-71
2022/08/06 12:57:19;;;;;;;274.05;244.55;;;;;;;;;;5046672;28;20680;-71
2022/08/06 12:59:45;;;;;;;264.52;237.45;;;;;;;;;;5044691;28;20277;-70
2022/08/06 13:02:12;;;;;;;270.27;241.63;;;;;;;;;;5045787;28;20219;-70
2022/08/06 13:04:39;;;;;;;284.55;254.52;;;;;;;;;;5041708;28;20293;-70
2022/08/06 13:07:06;;;;;;;285.95;256.48;;;;;;;;;;5045333;28;20593;-70
2022/08/06 13:09:34;;;;;;;290.75;259.50;;;;;;;;;;5044971;28;20210;-70
2022/08/06 13:12:10;;;;;;;297.92;265.80;;;;;;;;;;5045074;28;20557;-70
2022/08/06 13:14:48;;;;;;;289.42;259.45;;;;;;;;;;5039008;28;20602;-70
2022/08/06 13:17:14;;;;;;;303.88;270.60;;;;;;;;;;5046398;28;20211;-71
2022/08/06 13:19:50;;;;;;;300.60;268.90;;;;;;;;;;5045468;28;20223;-71
2022/08/06 13:22:16;;;;;;;298.38;267.83;;;;;;;;;;5051476;28;20632;-71
2022/08/06 13:24:42;;;;;;;298.75;266.30;;;;;;;;;;5047785;28;20318;-71
2022/08/06 13:27:08;;;;;;;303.17;271.40;;;;;;;;;;5049428;28;20211;-71
2022/08/06 13:29:34;;;;;;;290.00;259.67;;;;;;;;;;5033371;28;20238;-71
2022/08/06 13:32:02;;;;;;;323.45;286.98;;;;;;;;;;5047509;28;20926;-71
2022/08/06 13:34:28;;;;;;;320.50;285.52;;;;;;;;;;5049727;28;20284;-71
2022/08/06 13:36:58;;;;;;;305.05;271.90;;;;;;;;;;5051300;28;20565;-71
2022/08/06 13:39:29;;;;;;;317.13;282.45;;;;;;;;;;5050130;28;20223;-71
2022/08/06 13:42:14;;;;;;;389.63;299.42;;;;;;;;;;5022757;28;20608;-71
2022/08/06 13:44:41;;;;;;;378.50;272.17;;;;;;;;;;5048330;28;20235;-71
2022/08/06 13:47:08;;;;;;;398.90;302.45;;;;;;;;;;5046328;28;20258;-71
2022/08/06 13:49:34;;;;;;;400.92;302.77;;;;;;;;;;5048408;28;21338;-71
2022/08/06 13:52:00;;;;;;;397.85;303.90;;;;;;;;;;5049264;28;20177;-71
2022/08/06 13:54:28;;;;;;;382.27;289.88;;;;;;;;;;5027572;28;20628;-71
2022/08/06 13:56:54;;;;;;;397.65;307.80;;;;;;;;;;5048465;28;20227;-71
2022/08/06 13:59:21;;;;;;;425.05;333.38;;;;;;;;;;5051635;28;20277;-71
2022/08/06 14:01:47;;;;;;;407.65;339.20;;;;;;;;;;5045227;28;20327;-72
2022/08/06 14:04:14;;;;;;;396.17;338.73;;;;;;;;;;5050431;28;20240;-72
2022/08/06 14:06:41;;;;;;;389.98;326.30;;;;;;;;;;5048184;28;20180;-71